Time;durP1;ratioP1;P1;durP2;ratioP2;P2;SDS_P1;SDS_P2;PMS_P1;PMS_P2;Temp;Humidity;BMP_temperature;BMP_pressure;BME280_temperature;BME280_humidity;BME280_pressure;Samples;Min_cycle;Max_cycle;Signal;HPM_P1;HPM_P2
2022/06/05 00:02:50;;;;;;;19.08;16.25;;;;;17.30;101163.00;;;;10444662;28;20213;-81
2022/06/05 00:08:33;;;;;;;18.57;16.87;;;;;17.20;101155.00;;;;10436530;28;20281;-80
2022/06/05 00:13:51;;;;;;;20.90;18.90;;;;;17.20;101147.00;;;;10448962;28;20200;-80
2022/06/05 00:18:54;;;;;;;22.40;19.93;;;;;17.10;101147.00;;;;10461088;28;20197;-80
2022/06/05 00:23:55;;;;;;;21.33;19.43;;;;;17.10;101137.00;;;;10450407;28;20237;-80
2022/06/05 00:29:32;;;;;;;22.08;19.85;;;;;17.10;101118.00;;;;10485982;28;20560;-80
2022/06/05 00:34:33;;;;;;;23.17;20.77;;;;;17.10;101107.00;;;;10488007;28;20181;-80
2022/06/05 00:39:42;;;;;;;24.20;21.53;;;;;17.10;101107.00;;;;10438959;28;20262;-80
2022/06/05 00:44:50;;;;;;;28.07;21.53;;;;;17.10;101090.00;;;;10455455;28;20656;-80
2022/06/05 00:49:55;;;;;;;23.30;21.07;;;;;17.10;101077.00;;;;10487551;28;20201;-80
2022/06/05 00:54:57;;;;;;;25.13;22.27;;;;;17.10;101069.00;;;;10456311;28;20266;-80
2022/06/05 01:00:01;;;;;;;25.58;21.00;;;;;17.10;101060.00;;;;10444436;28;20198;-80
2022/06/05 01:05:06;;;;;;;24.90;22.13;;;;;17.00;101064.00;;;;10443255;28;20736;-80
2022/06/05 01:10:10;;;;;;;24.17;21.87;;;;;17.00;101055.00;;;;10478307;28;20221;-80
2022/06/05 01:15:22;;;;;;;23.98;21.48;;;;;17.00;101046.00;;;;10468070;28;20182;-80
2022/06/05 01:20:57;;;;;;;24.10;21.70;;;;;16.90;101030.00;;;;10468470;28;20220;-79
2022/06/05 01:26:19;;;;;;;24.77;21.83;;;;;16.80;101019.00;;;;10442782;28;20283;-80
2022/06/05 01:31:44;;;;;;;24.13;21.77;;;;;16.80;101010.00;;;;10451610;28;20198;-80
2022/06/05 01:37:02;;;;;;;24.27;21.63;;;;;16.70;101021.00;;;;10501838;28;20221;-80
2022/06/05 01:42:08;;;;;;;23.53;21.10;;;;;16.70;100997.00;;;;10461976;28;20213;-80
2022/06/05 01:47:25;;;;;;;25.40;22.93;;;;;16.70;100990.00;;;;10444913;28;20202;-79
2022/06/05 01:52:43;;;;;;;26.73;24.00;;;;;16.70;100992.00;;;;10427576;28;20338;-80
2022/06/05 01:57:47;;;;;;;24.53;21.93;;;;;16.70;100971.00;;;;10430878;28;20182;-79
2022/06/05 02:03:11;;;;;;;25.20;22.80;;;;;16.70;100970.00;;;;10437663;28;20217;-79
2022/06/05 02:08:20;;;;;;;26.00;23.47;;;;;16.60;100959.00;;;;10448405;28;20220;-79
2022/06/05 02:13:22;;;;;;;27.00;24.27;;;;;16.60;100955.00;;;;10460954;28;20200;-79
2022/06/05 02:18:24;;;;;;;25.90;23.23;;;;;16.50;100937.00;;;;10449986;28;20534;-79
2022/06/05 02:23:28;;;;;;;25.73;23.27;;;;;16.50;100928.00;;;;10451054;28;20216;-79
2022/06/05 02:28:31;;;;;;;26.20;23.67;;;;;16.40;100903.00;;;;10490915;28;20238;-80
2022/06/05 02:33:48;;;;;;;28.07;24.90;;;;;16.40;100896.00;;;;10434894;28;20195;-80
2022/06/05 02:39:07;;;;;;;27.37;24.47;;;;;16.30;100892.00;;;;10424399;28;20615;-79
2022/06/05 02:44:31;;;;;;;28.60;25.60;;;;;16.30;100881.00;;;;10424338;28;20218;-79
2022/06/05 02:49:48;;;;;;;28.93;25.97;;;;;16.30;100892.00;;;;10439996;28;20217;-80
2022/06/05 02:55:18;;;;;;;27.03;24.47;;;;;16.30;100904.00;;;;10451084;28;20185;-79
2022/06/05 03:00:23;;;;;;;26.63;23.93;;;;;16.20;100920.00;;;;10444417;28;20194;-80
2022/06/05 03:05:25;;;;;;;27.97;25.17;;;;;16.20;100912.00;;;;10425263;28;20205;-79
2022/06/05 03:10:27;;;;;;;27.83;25.10;;;;;16.20;100904.00;;;;10448198;28;20204;-79
2022/06/05 03:15:30;;;;;;;28.90;25.73;;;;;16.20;100894.00;;;;10465917;28;20209;-80
2022/06/05 03:20:33;;;;;;;29.57;26.70;;;;;16.20;100895.00;;;;10449778;28;20207;-79
2022/06/05 03:25:38;;;;;;;30.43;27.33;;;;;16.20;100896.00;;;;10465508;28;20204;-79
2022/06/05 03:30:42;;;;;;;29.50;26.50;;;;;16.20;100881.00;;;;10423276;28;20213;-79
2022/06/05 03:35:45;;;;;;;29.80;26.70;;;;;16.20;100882.00;;;;10425450;28;20210;-79
2022/06/05 03:40:47;;;;;;;29.40;26.40;;;;;16.20;100868.00;;;;10423112;28;20645;-79
2022/06/05 03:45:49;;;;;;;28.33;25.37;;;;;16.20;100873.00;;;;10431126;28;20197;-79
2022/06/05 03:50:51;;;;;;;28.50;25.73;;;;;16.20;100876.00;;;;10461282;28;20201;-79
2022/06/05 03:55:53;;;;;;;30.90;25.67;;;;;16.20;100865.00;;;;10436579;28;20237;-79
2022/06/05 04:00:55;;;;;;;29.60;26.30;;;;;16.30;100865.00;;;;10427988;28;20190;-79
2022/06/05 04:05:57;;;;;;;30.00;26.90;;;;;16.30;100871.00;;;;10424376;28;20210;-79
2022/06/05 04:10:58;;;;;;;29.17;26.33;;;;;16.30;100874.00;;;;10446050;28;20197;-79
2022/06/05 04:16:08;;;;;;;30.63;27.23;;;;;16.30;100875.00;;;;10407011;28;20216;-79
2022/06/05 04:21:13;;;;;;;28.77;25.80;;;;;16.30;100869.00;;;;10444100;28;20285;-80
2022/06/05 04:26:18;;;;;;;29.17;26.27;;;;;16.30;100866.00;;;;10436391;28;20652;-79
2022/06/05 04:31:23;;;;;;;28.87;25.77;;;;;16.30;100867.00;;;;10437585;28;20244;-79
2022/06/05 04:36:26;;;;;;;31.53;26.20;;;;;16.30;100867.00;;;;10419702;28;20210;-79
2022/06/05 04:41:28;;;;;;;31.10;27.40;;;;;16.40;100851.00;;;;10406204;28;20202;-79
2022/06/05 04:46:30;;;;;;;29.40;26.60;;;;;16.40;100844.00;;;;10427488;28;20716;-79
2022/06/05 04:51:34;;;;;;;31.87;26.60;;;;;16.50;100832.00;;;;10450845;28;20610;-79
2022/06/05 04:56:37;;;;;;;31.83;26.70;;;;;16.60;100823.00;;;;10434749;28;20221;-79
2022/06/05 05:01:40;;;;;;;29.37;26.23;;;;;16.70;100811.00;;;;10439865;28;20251;-78
2022/06/05 05:06:43;;;;;;;29.43;25.67;;;;;16.90;100809.00;;;;10453508;28;20218;-78
2022/06/05 05:11:45;;;;;;;30.53;27.47;;;;;17.00;100795.00;;;;10422735;28;20542;-78
2022/06/05 05:16:47;;;;;;;29.37;26.30;;;;;17.00;100789.00;;;;10437107;28;20209;-78
2022/06/05 05:21:49;;;;;;;28.27;25.43;;;;;17.10;100779.00;;;;10474902;28;20194;-78
2022/06/05 05:26:51;;;;;;;28.07;24.63;;;;;17.10;100774.00;;;;10481779;28;20202;-78
2022/06/05 05:31:53;;;;;;;27.33;24.47;;;;;17.30;100775.00;;;;10447789;28;20201;-78
2022/06/05 05:36:55;;;;;;;29.33;25.20;;;;;17.50;100766.00;;;;10438903;28;20261;-78
2022/06/05 05:42:06;;;;;;;26.90;24.30;;;;;17.60;100764.00;;;;10422735;28;20263;-79
2022/06/05 05:47:20;;;;;;;27.83;25.15;;;;;17.80;100770.00;;;;10468279;28;20194;-79
2022/06/05 05:52:23;;;;;;;28.08;25.20;;;;;18.00;100771.00;;;;10461296;28;20267;-80
2022/06/05 05:57:26;;;;;;;29.90;25.05;;;;;18.20;100770.00;;;;10479635;28;20197;-79
2022/06/05 06:02:28;;;;;;;26.48;23.92;;;;;18.40;100764.00;;;;10462455;28;20714;-79
2022/06/05 06:07:30;;;;;;;25.08;22.58;;;;;18.60;100763.00;;;;10455005;28;20222;-79
2022/06/05 06:12:31;;;;;;;25.15;22.50;;;;;18.60;100767.00;;;;10422064;28;20214;-80
2022/06/05 06:17:33;;;;;;;23.15;21.05;;;;;18.90;100776.00;;;;10440103;28;20193;-79
2022/06/05 06:22:35;;;;;;;22.55;20.42;;;;;19.00;100777.00;;;;10481571;28;20189;-79
2022/06/05 06:27:38;;;;;;;20.88;19.00;;;;;19.40;100786.00;;;;10483261;28;20197;-79
2022/06/05 06:32:45;;;;;;;21.33;19.25;;;;;20.00;100784.00;;;;10448531;28;20205;-79
2022/06/05 06:37:47;;;;;;;18.88;16.95;;;;;20.50;100797.00;;;;10443381;28;20217;-79
2022/06/05 06:42:49;;;;;;;18.55;16.90;;;;;21.00;100803.00;;;;10422731;28;20183;-79
2022/06/05 06:47:54;;;;;;;16.23;14.68;;;;;21.20;100799.00;;;;10427227;28;20205;-79
2022/06/05 06:52:55;;;;;;;14.25;13.02;;;;;21.70;100799.00;;;;10458672;28;20210;-79
2022/06/05 06:57:57;;;;;;;15.07;13.68;;;;;22.20;100794.00;;;;10468718;28;20205;-80
2022/06/05 07:02:59;;;;;;;16.00;14.35;;;;;22.10;100796.00;;;;10480416;28;20632;-79
2022/06/05 07:08:02;;;;;;;16.00;14.57;;;;;22.00;100790.00;;;;10451845;28;20195;-79
2022/06/05 07:13:05;;;;;;;15.18;13.77;;;;;22.10;100777.00;;;;10435520;28;20206;-80
2022/06/05 07:18:07;;;;;;;15.27;13.43;;;;;22.20;100773.00;;;;10442107;28;20202;-80
2022/06/05 07:23:10;;;;;;;15.40;13.65;;;;;22.10;100780.00;;;;10450846;28;20197;-80
2022/06/05 07:28:12;;;;;;;15.70;14.18;;;;;21.70;100783.00;;;;10458696;28;20201;-80
2022/06/05 07:33:15;;;;;;;17.02;15.40;;;;;21.20;100789.00;;;;10449465;28;20279;-80
2022/06/05 07:38:16;;;;;;;16.20;14.80;;;;;21.10;100785.00;;;;10443663;28;20247;-79
2022/06/05 07:43:21;;;;;;;17.23;15.55;;;;;21.40;100772.00;;;;10464855;28;20200;-80
2022/06/05 07:48:23;;;;;;;18.05;15.65;;;;;22.20;100759.00;;;;10476386;28;20213;-80
2022/06/05 07:58:46;;;;;;;16.30;14.80;;;;;23.40;100747.00;;;;10456511;28;20216;-79
2022/06/05 08:04:06;;;;;;;17.00;15.48;;;;;22.80;100740.00;;;;10421865;28;20568;-80
2022/06/05 08:09:09;;;;;;;16.63;14.75;;;;;22.80;100731.00;;;;10443312;28;20656;-80
2022/06/05 08:14:11;;;;;;;16.55;15.05;;;;;22.50;100716.00;;;;10471025;28;20231;-79
2022/06/05 08:19:17;;;;;;;18.02;15.55;;;;;22.10;100721.00;;;;10426119;28;20201;-79
2022/06/05 08:24:20;;;;;;;17.50;15.88;;;;;21.70;100715.00;;;;10470584;28;20264;-79
2022/06/05 08:29:22;;;;;;;17.85;16.27;;;;;21.60;100718.00;;;;10437584;28;20206;-80
2022/06/05 08:34:24;;;;;;;17.55;15.95;;;;;21.50;100735.00;;;;10470016;28;20213;-79
2022/06/05 08:44:57;;;;;;;18.65;17.13;;;;;21.50;100730.00;;;;10442967;28;20556;-80
2022/06/05 08:50:49;;;;;;;18.10;16.38;;;;;21.20;100723.00;;;;10480477;28;20560;-80
2022/06/05 08:55:54;;;;;;;19.52;17.83;;;;;20.80;100732.00;;;;10293028;28;20217;-80
2022/06/05 09:01:03;;;;;;;19.73;17.67;;;;;20.70;100737.00;;;;10424187;28;20189;-80
2022/06/05 09:06:18;;;;;;;18.15;16.25;;;;;20.60;100742.00;;;;10418582;28;20235;-80
2022/06/05 09:11:49;;;;;;;19.70;17.67;;;;;20.60;100733.00;;;;10450483;28;20632;-79
2022/06/05 09:16:57;;;;;;;20.65;18.77;;;;;20.60;100744.00;;;;10449712;28;20308;-80
2022/06/05 09:22:15;;;;;;;20.33;18.42;;;;;20.40;100730.00;;;;10441674;28;20202;-79
2022/06/05 09:28:02;;;;;;;22.25;20.17;;;;;20.20;100728.00;;;;10442798;28;20680;-80
2022/06/05 09:33:18;;;;;;;22.42;20.25;;;;;19.80;100731.00;;;;10424054;28;20218;-79
2022/06/05 09:38:46;;;;;;;22.30;20.20;;;;;19.50;100737.00;;;;10442677;28;20268;-80
2022/06/05 09:44:11;;;;;;;23.70;21.35;;;;;19.30;100726.00;;;;10425431;28;20186;-80
2022/06/05 09:49:16;;;;;;;23.50;21.20;;;;;18.80;100734.00;;;;10440186;28;20212;-79
2022/06/05 09:54:31;;;;;;;26.05;23.45;;;;;18.50;100741.00;;;;10460940;28;20280;-80
2022/06/05 09:59:39;;;;;;;28.25;25.48;;;;;18.30;100738.00;;;;10452045;28;20560;-80
2022/06/05 10:04:41;;;;;;;28.63;25.88;;;;;18.10;100742.00;;;;10415665;28;20214;-80
2022/06/05 10:10:06;;;;;;;30.13;27.08;;;;;18.00;100743.00;;;;10469632;28;20572;-82
2022/06/05 10:15:34;;;;;;;30.08;26.85;;;;;18.00;100745.00;;;;10438985;28;20251;-83
2022/06/05 10:21:07;;;;;;;33.55;30.08;;;;;17.90;100751.00;;;;10454372;28;20274;-83
2022/06/05 10:26:29;;;;;;;33.33;29.85;;;;;17.90;100739.00;;;;10451329;28;20217;-83
2022/06/05 10:31:34;;;;;;;35.53;31.98;;;;;17.90;100750.00;;;;10428397;28;20191;-83
2022/06/05 10:36:56;;;;;;;37.63;32.08;;;;;17.90;100758.00;;;;10427150;28;20249;-83
2022/06/05 10:41:58;;;;;;;36.70;32.83;;;;;17.90;100760.00;;;;10434663;28;20217;-82
2022/06/05 10:47:39;;;;;;;37.85;33.90;;;;;17.70;100750.00;;;;10467569;28;20190;-82
2022/06/05 10:53:10;;;;;;;38.13;34.00;;;;;17.50;100743.00;;;;10426207;28;20198;-81
2022/06/05 10:58:35;;;;;;;39.90;34.83;;;;;17.30;100749.00;;;;10415957;28;20249;-80
2022/06/05 11:04:01;;;;;;;40.95;36.60;;;;;17.30;100728.00;;;;10423874;28;20305;-80
2022/06/05 11:09:18;;;;;;;43.15;38.47;;;;;17.50;100735.00;;;;10436018;28;20190;-80
2022/06/05 11:14:47;;;;;;;42.30;37.03;;;;;17.50;100726.00;;;;10423461;28;20297;-80
2022/06/05 11:20:18;;;;;;;44.92;39.47;;;;;17.60;100730.00;;;;10424745;28;20197;-81
2022/06/05 11:25:25;;;;;;;44.33;38.90;;;;;17.70;100731.00;;;;10448845;28;20194;-80
2022/06/05 11:30:43;;;;;;;46.72;41.40;;;;;17.90;100739.00;;;;10447876;28;20723;-80
2022/06/05 11:35:55;;;;;;;46.10;41.00;;;;;18.00;100740.00;;;;10438720;28;20236;-80
2022/06/05 11:41:02;;;;;;;45.30;40.33;;;;;18.00;100737.00;;;;10422459;28;20203;-80
2022/06/05 11:46:26;;;;;;;45.72;39.47;;;;;18.00;100740.00;;;;10422977;28;20209;-80
2022/06/05 11:51:46;;;;;;;49.50;42.33;;;;;18.10;100737.00;;;;10422799;28;20201;-80
2022/06/05 11:57:02;;;;;;;48.42;41.28;;;;;18.10;100736.00;;;;10448175;28;20254;-80
2022/06/05 12:02:13;;;;;;;49.28;41.53;;;;;18.00;100729.00;;;;10463278;28;20192;-80
2022/06/05 12:07:17;;;;;;;52.22;43.33;;;;;18.00;100720.00;;;;10449666;28;20220;-80
2022/06/05 12:12:25;;;;;;;51.80;43.80;;;;;18.00;100727.00;;;;10430183;28;20247;-80
2022/06/05 12:17:43;;;;;;;53.88;45.10;;;;;18.10;100722.00;;;;10462686;28;20202;-80
2022/06/05 12:22:58;;;;;;;55.38;41.22;;;;;18.30;100727.00;;;;10444683;28;20193;-80
2022/06/05 12:28:08;;;;;;;49.72;43.92;;;;;18.20;100730.00;;;;10463001;28;20197;-80
2022/06/05 12:33:18;;;;;;;50.20;42.67;;;;;18.10;100727.00;;;;10406870;28;20542;-80
2022/06/05 12:38:56;;;;;;;52.80;44.90;;;;;18.20;100711.00;;;;10423531;28;20630;-81
2022/06/05 12:44:22;;;;;;;53.95;44.20;;;;;18.30;100711.00;;;;10397601;28;20195;-81
2022/06/05 12:49:28;;;;;;;42.90;37.88;;;;;18.50;100708.00;;;;10448178;28;20205;-80
2022/06/05 12:54:45;;;;;;;41.55;35.35;;;;;18.50;100720.00;;;;10446765;28;20235;-81
2022/06/05 13:00:18;;;;;;;42.15;34.42;;;;;18.50;100716.00;;;;10482900;28;20217;-80
2022/06/05 13:05:32;;;;;;;43.20;34.05;;;;;18.60;100711.00;;;;10450366;28;20242;-81
2022/06/05 13:10:41;;;;;;;40.15;33.22;;;;;18.60;100706.00;;;;10394547;28;20272;-82
2022/06/05 13:15:54;;;;;;;44.10;35.45;;;;;18.60;100711.00;;;;10423718;28;20640;-80
2022/06/05 13:21:03;;;;;;;43.35;34.13;;;;;18.90;100703.00;;;;10422187;28;20281;-80
2022/06/05 13:26:06;;;;;;;45.20;33.35;;;;;19.00;100694.00;;;;10467175;28;20208;-79
2022/06/05 13:31:22;;;;;;;38.15;31.67;;;;;19.10;100686.00;;;;10456864;28;20913;-79
2022/06/05 13:36:29;;;;;;;37.85;31.67;;;;;19.00;100685.00;;;;10472931;28;20205;-78
2022/06/05 13:41:42;;;;;;;42.15;33.40;;;;;19.00;100699.00;;;;10451005;28;20679;-79
2022/06/05 13:47:21;;;;;;;46.97;34.90;;;;;18.90;100722.00;;;;10465397;28;20197;-78
2022/06/05 13:52:41;;;;;;;45.63;35.03;;;;;18.80;100723.00;;;;10436857;28;20197;-78
2022/06/05 13:57:49;;;;;;;41.80;33.10;;;;;18.60;100705.00;;;;10471197;28;20259;-79
2022/06/05 14:03:04;;;;;;;44.38;33.95;;;;;18.40;100718.00;;;;10472466;28;20201;-79
2022/06/05 14:08:24;;;;;;;42.22;31.38;;;;;18.40;100742.00;;;;10445567;28;20197;-78
2022/06/05 14:13:27;;;;;;;41.08;29.58;;;;;18.50;100740.00;;;;10455841;28;20284;-79
2022/06/05 14:18:48;;;;;;;38.42;28.65;;;;;18.70;100733.00;;;;10453965;28;20205;-79
2022/06/05 14:23:51;;;;;;;35.80;28.08;;;;;18.80;100751.00;;;;10450904;28;20193;-78
2022/06/05 14:28:55;;;;;;;40.72;29.95;;;;;18.90;100743.00;;;;10466506;28;20209;-78
2022/06/05 14:34:01;;;;;;;36.78;29.67;;;;;19.00;100759.00;;;;10436537;28;20737;-78
2022/06/05 14:39:14;;;;;;;34.85;27.13;;;;;19.10;100757.00;;;;10446963;28;20201;-78
2022/06/05 14:44:24;;;;;;;30.40;24.67;;;;;19.00;100754.00;;;;10484559;28;20192;-77
2022/06/05 14:49:38;;;;;;;33.50;25.98;;;;;19.00;100754.00;;;;10466677;28;20220;-78
2022/06/05 15:00:25;;;;;;;27.63;23.08;;;;;19.30;100765.00;;;;10444043;28;20190;-78
2022/06/05 15:05:33;;;;;;;28.67;23.08;;;;;19.40;100764.00;;;;10464000;28;20210;-77
2022/06/05 15:10:39;;;;;;;25.20;22.17;;;;;19.60;100777.00;;;;10459579;28;20205;-78
2022/06/05 15:15:51;;;;;;;28.73;23.98;;;;;19.60;100789.00;;;;10436764;28;20205;-77
2022/06/05 15:20:59;;;;;;;22.95;20.52;;;;;18.80;100790.00;;;;10453182;28;20198;-78
2022/06/05 15:26:23;;;;;;;23.90;20.13;;;;;18.80;100803.00;;;;10455341;28;20275;-77
2022/06/05 15:31:51;;;;;;;22.77;19.52;;;;;18.80;100803.00;;;;10455715;28;20544;-77
2022/06/05 15:36:58;;;;;;;18.98;16.58;;;;;19.00;100803.00;;;;10428098;28;20225;-77
2022/06/05 15:42:18;;;;;;;15.70;14.18;;;;;19.50;100794.00;;;;10448092;28;20201;-77
2022/06/05 15:47:32;;;;;;;14.93;12.73;;;;;20.00;100803.00;;;;10442034;28;20259;-77
2022/06/05 15:53:06;;;;;;;13.18;11.70;;;;;20.50;100798.00;;;;10456025;28;20189;-77
2022/06/05 15:59:01;;;;;;;10.65;9.25;;;;;19.90;100790.00;;;;10470532;28;20571;-77
2022/06/05 16:04:08;;;;;;;8.30;7.38;;;;;19.60;100802.00;;;;10343777;28;20213;-76
2022/06/05 16:09:51;;;;;;;8.15;7.35;;;;;19.50;100795.00;;;;10463171;28;20205;-77
2022/06/05 16:14:53;;;;;;;8.90;6.85;;;;;19.20;100802.00;;;;10461130;28;20197;-77
2022/06/05 16:20:13;;;;;;;8.90;6.75;;;;;19.10;100792.00;;;;10440054;28;20593;-77
2022/06/05 16:25:41;;;;;;;7.25;6.55;;;;;19.30;100788.00;;;;10442519;28;20603;-77
2022/06/05 16:30:46;;;;;;;8.70;7.80;;;;;19.70;100793.00;;;;10442075;28;20209;-77
2022/06/05 16:41:17;;;;;;;9.93;8.07;;;;;20.30;100793.00;;;;10477105;28;20190;-77
2022/06/05 16:46:30;;;;;;;10.10;8.65;;;;;20.50;100780.00;;;;10453748;28;20231;-77
2022/06/05 16:51:47;;;;;;;8.80;7.93;;;;;20.60;100788.00;;;;10481696;28;20217;-78
2022/06/05 16:56:52;;;;;;;8.32;7.38;;;;;21.00;100797.00;;;;10441235;28;20699;-79
2022/06/05 17:02:14;;;;;;;9.30;7.68;;;;;21.00;100797.00;;;;10421557;28;20273;-80
2022/06/05 17:07:32;;;;;;;8.88;7.47;;;;;20.80;100803.00;;;;10415071;28;20566;-79
2022/06/05 17:13:12;;;;;;;8.63;7.38;;;;;20.60;100792.00;;;;10435787;28;20240;-79
2022/06/05 17:18:32;;;;;;;8.68;6.80;;;;;20.30;100802.00;;;;10444438;28;20209;-79
2022/06/05 17:23:57;;;;;;;7.90;6.82;;;;;20.20;100794.00;;;;10441241;28;20198;-79
2022/06/05 17:29:19;;;;;;;9.75;8.10;;;;;20.10;100806.00;;;;10439718;28;20680;-79
2022/06/05 17:34:44;;;;;;;10.60;7.72;;;;;20.10;100803.00;;;;10433093;28;20206;-79
2022/06/05 17:40:21;;;;;;;8.48;7.68;;;;;20.10;100808.00;;;;10406926;28;20544;-79
2022/06/05 17:45:33;;;;;;;8.13;7.22;;;;;20.10;100813.00;;;;10478877;28;20182;-79
2022/06/05 17:50:59;;;;;;;8.25;7.47;;;;;20.00;100819.00;;;;10457666;28;20254;-78
2022/06/05 17:56:03;;;;;;;11.35;7.80;;;;;19.80;100816.00;;;;10456881;28;20240;-78
2022/06/05 18:01:08;;;;;;;9.30;7.22;;;;;19.40;100819.00;;;;10434903;28;20194;-78
2022/06/05 18:06:29;;;;;;;8.13;7.32;;;;;19.10;100827.00;;;;10457550;28;20219;-78
2022/06/05 18:11:32;;;;;;;10.05;7.45;;;;;18.90;100826.00;;;;10441961;28;20249;-79
2022/06/05 18:16:43;;;;;;;7.97;7.18;;;;;18.60;100827.00;;;;10448915;28;20224;-79
2022/06/05 18:21:46;;;;;;;8.43;7.47;;;;;18.40;100823.00;;;;10420978;28;20206;-79
2022/06/05 18:27:06;;;;;;;10.30;9.30;;;;;18.20;100776.00;;;;10428812;28;20216;-79
2022/06/05 18:32:17;;;;;;;14.18;12.65;;;;;18.00;100802.00;;;;10427384;28;20190;-85
2022/06/05 18:42:44;;;;;;;22.85;16.15;;;;;17.50;100787.00;;;;10425811;28;20569;-82
2022/06/05 18:47:49;;;;;;;26.33;18.70;;;;;17.40;100794.00;;;;10428128;28;20198;-82
2022/06/05 18:52:52;;;;;;;38.10;27.55;;;;;17.20;100821.00;;;;10465452;28;20190;-82
2022/06/05 18:57:54;;;;;;;52.67;34.95;;;;;17.00;100834.00;;;;10428943;28;20558;-82
2022/06/05 19:02:59;;;;;;;124.82;67.75;;;;;17.00;100845.00;;;;10450168;28;20818;-81
2022/06/05 19:08:03;;;;;;;123.15;65.95;;;;;16.80;100860.00;;;;10450058;28;20206;-81
2022/06/05 19:13:29;;;;;;;135.23;71.60;;;;;16.60;100874.00;;;;10464609;28;20190;-81
2022/06/05 19:18:57;;;;;;;130.45;70.15;;;;;16.60;100895.00;;;;10466185;28;20212;-81
2022/06/05 19:24:16;;;;;;;150.77;78.73;;;;;16.40;100904.00;;;;10416880;28;20614;-81
2022/06/05 19:29:23;;;;;;;135.07;71.13;;;;;16.30;100908.00;;;;10412233;28;20213;-81
2022/06/05 19:34:50;;;;;;;110.70;63.13;;;;;16.10;100914.00;;;;10412579;28;20206;-81
2022/06/05 19:39:56;;;;;;;96.53;56.93;;;;;15.80;100918.00;;;;10422807;28;20213;-80
2022/06/05 19:45:30;;;;;;;108.57;58.43;;;;;15.60;100916.00;;;;10428307;28;20222;-81
2022/06/05 19:50:51;;;;;;;102.40;56.40;;;;;15.40;100920.00;;;;10421653;28;20194;-80
2022/06/05 19:55:56;;;;;;;97.87;54.70;;;;;15.30;100928.00;;;;10454883;28;20209;-79
2022/06/05 20:01:29;;;;;;;109.27;57.97;;;;;15.20;100931.00;;;;10448943;28;20198;-80
2022/06/05 20:06:52;;;;;;;109.77;58.93;;;;;15.20;100934.00;;;;10425144;28;20224;-79
2022/06/05 20:12:21;;;;;;;113.80;59.30;;;;;15.20;100940.00;;;;10436617;28;20708;-80
2022/06/05 20:17:31;;;;;;;104.93;58.63;;;;;15.20;100962.00;;;;10414745;28;20319;-79
2022/06/05 20:22:37;;;;;;;105.87;56.17;;;;;15.20;100967.00;;;;10424092;28;20197;-80
2022/06/05 20:27:48;;;;;;;115.93;60.77;;;;;15.30;100965.00;;;;10453673;28;20592;-79
2022/06/05 20:32:53;;;;;;;104.77;53.47;;;;;15.30;100969.00;;;;10437072;28;20265;-79
2022/06/05 20:37:59;;;;;;;100.17;51.57;;;;;15.30;100983.00;;;;10405533;28;20748;-79
2022/06/05 20:43:18;;;;;;;97.27;51.80;;;;;15.20;100972.00;;;;10436691;28;20198;-79
2022/06/05 20:49:12;;;;;;;101.77;51.43;;;;;15.20;100982.00;;;;10427116;28;20193;-79
2022/06/05 20:54:14;;;;;;;106.83;52.37;;;;;15.30;100989.00;;;;10428136;28;20233;-79
2022/06/05 20:59:22;;;;;;;91.20;46.63;;;;;15.30;100996.00;;;;10452045;28;20200;-79
2022/06/05 21:10:00;;;;;;;73.67;38.80;;;;;15.30;100997.00;;;;10444074;28;20193;-80
2022/06/05 21:20:27;;;;;;;78.37;34.27;;;;;15.30;100995.00;;;;10462191;28;20193;-79
2022/06/05 21:25:49;;;;;;;79.83;37.90;;;;;15.30;100990.00;;;;10445837;28;20243;-79
2022/06/05 21:30:54;;;;;;;77.03;35.60;;;;;15.40;101007.00;;;;10439158;28;20197;-80
2022/06/05 21:36:00;;;;;;;70.60;35.50;;;;;15.40;101011.00;;;;10421995;28;20613;-79
2022/06/05 21:41:36;;;;;;;71.20;34.37;;;;;15.40;101003.00;;;;10436533;28;20277;-79
2022/06/05 21:46:40;;;;;;;63.37;33.63;;;;;15.40;101001.00;;;;10433298;28;20472;-80
2022/06/05 21:51:44;;;;;;;69.67;34.03;;;;;15.40;101005.00;;;;10476998;28;20626;-80
2022/06/05 21:56:50;;;;;;;61.67;32.23;;;;;15.40;101004.00;;;;10444452;28;20216;-79
2022/06/05 22:01:52;;;;;;;72.73;33.43;;;;;15.40;101007.00;;;;10429878;28;20280;-80
2022/06/05 22:06:54;;;;;;;62.63;30.97;;;;;15.40;101012.00;;;;10475327;28;20684;-79
2022/06/05 22:11:56;;;;;;;56.03;30.23;;;;;15.50;101016.00;;;;10442310;28;20228;-79
2022/06/05 22:17:00;;;;;;;58.53;29.50;;;;;15.50;101011.00;;;;10443213;28;20209;-79
2022/06/05 22:22:14;;;;;;;59.17;30.73;;;;;15.40;101015.00;;;;10433811;28;20612;-79
2022/06/05 22:27:20;;;;;;;63.23;31.33;;;;;15.40;101017.00;;;;10441235;28;20251;-79
2022/06/05 22:32:22;;;;;;;58.27;32.90;;;;;15.40;101013.00;;;;10473846;28;20221;-79
2022/06/05 22:37:23;;;;;;;57.63;30.53;;;;;15.40;101015.00;;;;10475096;28;20241;-78
2022/06/05 22:42:25;;;;;;;59.27;29.47;;;;;15.40;101017.00;;;;10417177;28;20252;-79
2022/06/05 22:47:28;;;;;;;58.03;28.27;;;;;15.40;101019.00;;;;10432958;28;20198;-79
2022/06/05 22:52:30;;;;;;;55.60;28.73;;;;;15.30;101019.00;;;;10432800;28;20198;-79
2022/06/05 22:57:32;;;;;;;56.23;29.30;;;;;15.30;101030.00;;;;10418704;28;20236;-78
2022/06/05 23:02:34;;;;;;;53.60;28.47;;;;;15.30;101026.00;;;;10422742;28;20691;-79
2022/06/05 23:07:37;;;;;;;60.13;31.20;;;;;15.30;101036.00;;;;10413829;28;20241;-79
2022/06/05 23:12:40;;;;;;;45.83;26.33;;;;;15.30;101033.00;;;;10458046;28;20197;-79
2022/06/05 23:17:42;;;;;;;39.97;24.53;;;;;15.30;101037.00;;;;10455885;28;20214;-79
2022/06/05 23:22:44;;;;;;;41.43;23.17;;;;;15.20;101025.00;;;;10439886;28;20587;-79
2022/06/05 23:27:45;;;;;;;39.60;24.37;;;;;15.20;101031.00;;;;10437313;28;20254;-79
2022/06/05 23:32:48;;;;;;;35.67;22.07;;;;;15.10;101032.00;;;;10432281;28;20289;-78
2022/06/05 23:37:50;;;;;;;41.43;23.60;;;;;15.10;101037.00;;;;10431031;28;20258;-79
2022/06/05 23:42:52;;;;;;;40.37;23.73;;;;;15.00;101024.00;;;;10449355;28;20197;-79
2022/06/05 23:47:54;;;;;;;43.63;24.23;;;;;15.00;101026.00;;;;10455622;28;20618;-79
2022/06/05 23:52:56;;;;;;;38.33;21.83;;;;;14.90;101007.00;;;;10453832;28;20194;-79
2022/06/05 23:57:58;;;;;;;35.43;21.63;;;;;14.90;101029.00;;;;10469171;28;20202;-79
